sensor_id;sensor_type;location;lat;lon;timestamp;P1;durP1;ratioP1;P2;durP2;ratioP2
15077;SDS011;7638;49.760;8.646;2024-03-02T00:00:22;3.87;;;3.10;;
15077;SDS011;7638;49.760;8.646;2024-03-02T00:02:50;3.17;;;2.00;;
15077;SDS011;7638;49.760;8.646;2024-03-02T00:07:43;2.50;;;2.03;;
15077;SDS011;7638;49.760;8.646;2024-03-02T00:10:09;4.20;;;2.23;;
15077;SDS011;7638;49.760;8.646;2024-03-02T00:12:36;3.87;;;2.17;;
15077;SDS011;7638;49.760;8.646;2024-03-02T00:15:06;3.53;;;2.40;;
15077;SDS011;7638;49.760;8.646;2024-03-02T00:17:33;2.47;;;2.10;;
15077;SDS011;7638;49.760;8.646;2024-03-02T00:19:59;3.47;;;2.43;;
15077;SDS011;7638;49.760;8.646;2024-03-02T00:22:25;3.67;;;2.30;;
15077;SDS011;7638;49.760;8.646;2024-03-02T00:24:51;3.27;;;2.37;;
15077;SDS011;7638;49.760;8.646;2024-03-02T00:27:18;5.57;;;2.27;;
15077;SDS011;7638;49.760;8.646;2024-03-02T00:29:45;6.77;;;2.60;;
15077;SDS011;7638;49.760;8.646;2024-03-02T00:32:12;2.80;;;2.40;;
15077;SDS011;7638;49.760;8.646;2024-03-02T00:34:39;4.90;;;2.20;;
15077;SDS011;7638;49.760;8.646;2024-03-02T00:37:05;3.30;;;2.13;;
15077;SDS011;7638;49.760;8.646;2024-03-02T00:39:32;3.43;;;2.43;;
15077;SDS011;7638;49.760;8.646;2024-03-02T00:41:58;3.80;;;2.10;;
15077;SDS011;7638;49.760;8.646;2024-03-02T00:44:26;3.57;;;2.57;;
15077;SDS011;7638;49.760;8.646;2024-03-02T00:46:52;5.80;;;2.47;;
15077;SDS011;7638;49.760;8.646;2024-03-02T00:49:22;2.60;;;2.33;;
15077;SDS011;7638;49.760;8.646;2024-03-02T00:51:49;3.33;;;2.23;;
15077;SDS011;7638;49.760;8.646;2024-03-02T00:54:15;3.30;;;2.47;;
15077;SDS011;7638;49.760;8.646;2024-03-02T00:56:41;2.97;;;2.13;;
15077;SDS011;7638;49.760;8.646;2024-03-02T00:59:07;2.93;;;1.83;;
15077;SDS011;7638;49.760;8.646;2024-03-02T01:04:37;2.20;;;1.67;;
15077;SDS011;7638;49.760;8.646;2024-03-02T01:07:03;2.80;;;2.20;;
15077;SDS011;7638;49.760;8.646;2024-03-02T01:09:29;3.30;;;2.23;;
15077;SDS011;7638;49.760;8.646;2024-03-02T01:11:56;2.60;;;1.87;;
15077;SDS011;7638;49.760;8.646;2024-03-02T01:14:22;3.20;;;2.23;;
15077;SDS011;7638;49.760;8.646;2024-03-02T01:16:48;2.53;;;1.80;;
15077;SDS011;7638;49.760;8.646;2024-03-02T01:19:14;2.87;;;1.97;;
15077;SDS011;7638;49.760;8.646;2024-03-02T01:21:40;2.47;;;1.90;;
15077;SDS011;7638;49.760;8.646;2024-03-02T01:24:06;1.93;;;1.67;;
15077;SDS011;7638;49.760;8.646;2024-03-02T01:26:32;2.77;;;2.00;;
15077;SDS011;7638;49.760;8.646;2024-03-02T01:28:58;5.20;;;1.80;;
15077;SDS011;7638;49.760;8.646;2024-03-02T01:31:24;2.60;;;2.10;;
15077;SDS011;7638;49.760;8.646;2024-03-02T01:33:50;2.80;;;1.83;;
15077;SDS011;7638;49.760;8.646;2024-03-02T01:36:16;3.00;;;1.87;;
15077;SDS011;7638;49.760;8.646;2024-03-02T01:38:42;2.57;;;1.77;;
15077;SDS011;7638;49.760;8.646;2024-03-02T01:41:08;4.17;;;1.73;;
15077;SDS011;7638;49.760;8.646;2024-03-02T01:43:34;3.17;;;2.57;;
15077;SDS011;7638;49.760;8.646;2024-03-02T01:46:00;2.67;;;1.70;;
15077;SDS011;7638;49.760;8.646;2024-03-02T01:48:26;1.67;;;1.57;;
15077;SDS011;7638;49.760;8.646;2024-03-02T01:50:52;1.93;;;1.43;;
15077;SDS011;7638;49.760;8.646;2024-03-02T01:53:18;6.53;;;1.40;;
15077;SDS011;7638;49.760;8.646;2024-03-02T01:55:44;1.93;;;1.20;;
15077;SDS011;7638;49.760;8.646;2024-03-02T01:58:10;2.90;;;1.53;;
15077;SDS011;7638;49.760;8.646;2024-03-02T02:00:36;1.33;;;0.87;;
15077;SDS011;7638;49.760;8.646;2024-03-02T02:03:02;3.03;;;1.07;;
15077;SDS011;7638;49.760;8.646;2024-03-02T02:05:28;1.93;;;1.57;;
15077;SDS011;7638;49.760;8.646;2024-03-02T02:07:54;2.00;;;1.43;;
15077;SDS011;7638;49.760;8.646;2024-03-02T02:10:23;2.20;;;1.50;;
15077;SDS011;7638;49.760;8.646;2024-03-02T02:12:49;1.53;;;1.40;;
15077;SDS011;7638;49.760;8.646;2024-03-02T02:15:27;2.80;;;1.43;;
15077;SDS011;7638;49.760;8.646;2024-03-02T02:17:53;3.77;;;1.87;;
15077;SDS011;7638;49.760;8.646;2024-03-02T02:20:19;1.43;;;1.10;;
15077;SDS011;7638;49.760;8.646;2024-03-02T02:22:55;2.33;;;1.43;;
15077;SDS011;7638;49.760;8.646;2024-03-02T02:25:21;1.30;;;1.10;;
15077;SDS011;7638;49.760;8.646;2024-03-02T02:27:47;2.00;;;1.40;;
15077;SDS011;7638;49.760;8.646;2024-03-02T02:30:13;3.53;;;1.50;;
15077;SDS011;7638;49.760;8.646;2024-03-02T02:32:39;1.60;;;1.50;;
15077;SDS011;7638;49.760;8.646;2024-03-02T02:35:05;1.60;;;1.20;;
15077;SDS011;7638;49.760;8.646;2024-03-02T02:37:31;1.67;;;1.20;;
15077;SDS011;7638;49.760;8.646;2024-03-02T02:39:57;1.77;;;1.20;;
15077;SDS011;7638;49.760;8.646;2024-03-02T02:42:23;1.37;;;1.10;;
15077;SDS011;7638;49.760;8.646;2024-03-02T02:44:49;2.23;;;1.10;;
15077;SDS011;7638;49.760;8.646;2024-03-02T02:47:15;1.47;;;1.13;;
15077;SDS011;7638;49.760;8.646;2024-03-02T02:49:41;1.20;;;1.10;;
15077;SDS011;7638;49.760;8.646;2024-03-02T02:52:07;1.93;;;1.30;;
15077;SDS011;7638;49.760;8.646;2024-03-02T02:54:33;2.07;;;1.10;;
15077;SDS011;7638;49.760;8.646;2024-03-02T02:56:59;2.03;;;1.30;;
15077;SDS011;7638;49.760;8.646;2024-03-02T02:59:25;1.60;;;1.30;;
15077;SDS011;7638;49.760;8.646;2024-03-02T03:01:51;1.70;;;1.57;;
15077;SDS011;7638;49.760;8.646;2024-03-02T03:04:17;1.50;;;1.40;;
15077;SDS011;7638;49.760;8.646;2024-03-02T03:06:43;1.87;;;1.33;;
15077;SDS011;7638;49.760;8.646;2024-03-02T03:09:09;1.13;;;1.00;;
15077;SDS011;7638;49.760;8.646;2024-03-02T03:11:36;2.80;;;1.57;;
15077;SDS011;7638;49.760;8.646;2024-03-02T03:14:02;1.63;;;1.50;;
15077;SDS011;7638;49.760;8.646;2024-03-02T03:16:30;1.20;;;1.13;;
15077;SDS011;7638;49.760;8.646;2024-03-02T03:18:56;3.53;;;1.17;;
15077;SDS011;7638;49.760;8.646;2024-03-02T03:21:22;1.27;;;1.13;;
15077;SDS011;7638;49.760;8.646;2024-03-02T03:23:48;4.00;;;1.30;;
15077;SDS011;7638;49.760;8.646;2024-03-02T03:26:14;1.93;;;1.40;;
15077;SDS011;7638;49.760;8.646;2024-03-02T03:28:40;1.63;;;1.10;;
15077;SDS011;7638;49.760;8.646;2024-03-02T03:34:09;1.67;;;1.30;;
15077;SDS011;7638;49.760;8.646;2024-03-02T03:36:37;2.73;;;1.27;;
15077;SDS011;7638;49.760;8.646;2024-03-02T03:39:03;2.53;;;1.30;;
15077;SDS011;7638;49.760;8.646;2024-03-02T03:41:31;1.70;;;1.33;;
15077;SDS011;7638;49.760;8.646;2024-03-02T03:43:57;1.63;;;1.10;;
15077;SDS011;7638;49.760;8.646;2024-03-02T03:46:23;2.93;;;1.33;;
15077;SDS011;7638;49.760;8.646;2024-03-02T03:48:49;1.77;;;1.60;;
15077;SDS011;7638;49.760;8.646;2024-03-02T03:51:15;3.60;;;2.30;;
15077;SDS011;7638;49.760;8.646;2024-03-02T03:53:41;3.93;;;2.77;;
15077;SDS011;7638;49.760;8.646;2024-03-02T03:56:07;6.30;;;3.27;;
15077;SDS011;7638;49.760;8.646;2024-03-02T03:58:33;6.37;;;4.20;;
15077;SDS011;7638;49.760;8.646;2024-03-02T04:04:02;5.53;;;3.67;;
15077;SDS011;7638;49.760;8.646;2024-03-02T04:06:28;5.23;;;3.53;;
15077;SDS011;7638;49.760;8.646;2024-03-02T04:08:54;4.87;;;2.50;;
15077;SDS011;7638;49.760;8.646;2024-03-02T04:11:20;2.80;;;1.97;;
15077;SDS011;7638;49.760;8.646;2024-03-02T04:13:46;2.43;;;1.83;;
15077;SDS011;7638;49.760;8.646;2024-03-02T04:16:12;4.30;;;2.43;;
15077;SDS011;7638;49.760;8.646;2024-03-02T04:18:38;1.43;;;1.33;;
15077;SDS011;7638;49.760;8.646;2024-03-02T04:21:04;1.50;;;1.30;;
15077;SDS011;7638;49.760;8.646;2024-03-02T04:23:31;3.37;;;1.60;;
15077;SDS011;7638;49.760;8.646;2024-03-02T04:25:56;2.23;;;1.50;;
15077;SDS011;7638;49.760;8.646;2024-03-02T04:28:22;1.87;;;1.60;;
15077;SDS011;7638;49.760;8.646;2024-03-02T04:30:48;2.60;;;1.97;;
15077;SDS011;7638;49.760;8.646;2024-03-02T04:33:14;4.37;;;2.80;;
15077;SDS011;7638;49.760;8.646;2024-03-02T04:35:40;5.63;;;3.40;;
15077;SDS011;7638;49.760;8.646;2024-03-02T04:38:06;7.30;;;4.10;;
15077;SDS011;7638;49.760;8.646;2024-03-02T04:40:33;6.33;;;3.80;;
15077;SDS011;7638;49.760;8.646;2024-03-02T04:42:59;7.13;;;4.20;;
15077;SDS011;7638;49.760;8.646;2024-03-02T04:45:25;7.30;;;4.30;;
15077;SDS011;7638;49.760;8.646;2024-03-02T04:47:50;6.27;;;4.10;;
15077;SDS011;7638;49.760;8.646;2024-03-02T04:50:16;7.23;;;4.63;;
15077;SDS011;7638;49.760;8.646;2024-03-02T04:52:42;6.43;;;4.00;;
15077;SDS011;7638;49.760;8.646;2024-03-02T04:55:08;6.57;;;3.80;;
15077;SDS011;7638;49.760;8.646;2024-03-02T04:57:35;4.33;;;3.10;;
15077;SDS011;7638;49.760;8.646;2024-03-02T05:00:01;6.03;;;4.27;;
15077;SDS011;7638;49.760;8.646;2024-03-02T05:05:30;2.03;;;1.53;;
15077;SDS011;7638;49.760;8.646;2024-03-02T05:07:57;3.50;;;2.20;;
15077;SDS011;7638;49.760;8.646;2024-03-02T05:10:22;4.47;;;2.40;;
15077;SDS011;7638;49.760;8.646;2024-03-02T05:12:49;4.07;;;2.87;;
15077;SDS011;7638;49.760;8.646;2024-03-02T05:15:22;7.00;;;4.00;;
15077;SDS011;7638;49.760;8.646;2024-03-02T05:17:48;4.57;;;3.70;;
15077;SDS011;7638;49.760;8.646;2024-03-02T05:20:13;7.23;;;4.30;;
15077;SDS011;7638;49.760;8.646;2024-03-02T05:22:40;8.03;;;4.60;;
15077;SDS011;7638;49.760;8.646;2024-03-02T05:25:06;8.87;;;5.00;;
15077;SDS011;7638;49.760;8.646;2024-03-02T05:27:32;9.90;;;6.70;;
15077;SDS011;7638;49.760;8.646;2024-03-02T05:29:58;9.67;;;5.50;;
15077;SDS011;7638;49.760;8.646;2024-03-02T05:38:27;7.70;;;5.13;;
15077;SDS011;7638;49.760;8.646;2024-03-02T05:40:53;6.53;;;4.83;;
15077;SDS011;7638;49.760;8.646;2024-03-02T05:43:20;9.90;;;5.30;;
15077;SDS011;7638;49.760;8.646;2024-03-02T05:45:46;8.27;;;4.50;;
15077;SDS011;7638;49.760;8.646;2024-03-02T05:48:11;6.67;;;4.90;;
15077;SDS011;7638;49.760;8.646;2024-03-02T05:50:38;9.20;;;5.67;;
15077;SDS011;7638;49.760;8.646;2024-03-02T05:53:04;7.67;;;4.47;;
15077;SDS011;7638;49.760;8.646;2024-03-02T05:55:30;8.43;;;5.80;;
15077;SDS011;7638;49.760;8.646;2024-03-02T05:57:56;11.90;;;4.90;;
15077;SDS011;7638;49.760;8.646;2024-03-02T06:06:54;7.50;;;5.10;;
15077;SDS011;7638;49.760;8.646;2024-03-02T06:09:21;7.60;;;5.17;;
15077;SDS011;7638;49.760;8.646;2024-03-02T06:11:49;5.50;;;4.23;;
15077;SDS011;7638;49.760;8.646;2024-03-02T06:14:15;6.93;;;4.10;;
15077;SDS011;7638;49.760;8.646;2024-03-02T06:16:41;7.07;;;4.37;;
15077;SDS011;7638;49.760;8.646;2024-03-02T06:19:07;8.00;;;5.17;;
15077;SDS011;7638;49.760;8.646;2024-03-02T06:21:33;5.93;;;4.03;;
15077;SDS011;7638;49.760;8.646;2024-03-02T06:23:59;6.57;;;3.80;;
15077;SDS011;7638;49.760;8.646;2024-03-02T06:26:26;4.10;;;2.83;;
15077;SDS011;7638;49.760;8.646;2024-03-02T06:28:52;4.70;;;3.17;;
15077;SDS011;7638;49.760;8.646;2024-03-02T06:31:18;5.90;;;4.23;;
15077;SDS011;7638;49.760;8.646;2024-03-02T06:33:44;5.87;;;3.83;;
15077;SDS011;7638;49.760;8.646;2024-03-02T06:36:10;7.77;;;4.70;;
15077;SDS011;7638;49.760;8.646;2024-03-02T06:38:36;4.73;;;4.00;;
15077;SDS011;7638;49.760;8.646;2024-03-02T06:41:04;7.33;;;4.13;;
15077;SDS011;7638;49.760;8.646;2024-03-02T06:43:30;5.87;;;3.70;;
15077;SDS011;7638;49.760;8.646;2024-03-02T06:45:56;8.13;;;4.83;;
15077;SDS011;7638;49.760;8.646;2024-03-02T06:48:22;10.30;;;5.37;;
15077;SDS011;7638;49.760;8.646;2024-03-02T06:50:49;6.47;;;5.03;;
15077;SDS011;7638;49.760;8.646;2024-03-02T06:53:17;10.03;;;5.40;;
15077;SDS011;7638;49.760;8.646;2024-03-02T06:55:44;9.00;;;5.20;;
15077;SDS011;7638;49.760;8.646;2024-03-02T06:58:11;12.33;;;6.40;;
15077;SDS011;7638;49.760;8.646;2024-03-02T07:00:37;13.40;;;7.70;;
15077;SDS011;7638;49.760;8.646;2024-03-02T07:03:03;16.80;;;9.77;;
15077;SDS011;7638;49.760;8.646;2024-03-02T07:05:29;19.57;;;10.93;;
15077;SDS011;7638;49.760;8.646;2024-03-02T07:07:55;22.70;;;13.63;;
15077;SDS011;7638;49.760;8.646;2024-03-02T07:10:21;11.93;;;6.80;;
15077;SDS011;7638;49.760;8.646;2024-03-02T07:12:47;10.53;;;6.03;;
15077;SDS011;7638;49.760;8.646;2024-03-02T07:15:13;7.77;;;5.37;;
15077;SDS011;7638;49.760;8.646;2024-03-02T07:17:54;11.23;;;6.63;;
15077;SDS011;7638;49.760;8.646;2024-03-02T07:20:20;10.93;;;7.20;;
15077;SDS011;7638;49.760;8.646;2024-03-02T07:22:46;19.13;;;10.60;;
15077;SDS011;7638;49.760;8.646;2024-03-02T07:25:13;11.13;;;8.50;;
15077;SDS011;7638;49.760;8.646;2024-03-02T07:27:39;10.67;;;8.00;;
15077;SDS011;7638;49.760;8.646;2024-03-02T07:30:06;21.30;;;11.47;;
15077;SDS011;7638;49.760;8.646;2024-03-02T07:32:32;14.47;;;9.20;;
15077;SDS011;7638;49.760;8.646;2024-03-02T07:34:58;16.30;;;8.57;;
15077;SDS011;7638;49.760;8.646;2024-03-02T07:37:26;16.43;;;8.33;;
15077;SDS011;7638;49.760;8.646;2024-03-02T07:39:52;10.50;;;7.00;;
15077;SDS011;7638;49.760;8.646;2024-03-02T07:42:18;13.33;;;6.93;;
15077;SDS011;7638;49.760;8.646;2024-03-02T07:44:44;12.30;;;7.30;;
15077;SDS011;7638;49.760;8.646;2024-03-02T07:47:10;12.20;;;7.43;;
15077;SDS011;7638;49.760;8.646;2024-03-02T07:49:36;13.27;;;7.77;;
15077;SDS011;7638;49.760;8.646;2024-03-02T07:52:02;14.20;;;8.30;;
15077;SDS011;7638;49.760;8.646;2024-03-02T07:54:28;16.50;;;8.23;;
15077;SDS011;7638;49.760;8.646;2024-03-02T07:56:54;11.60;;;8.47;;
15077;SDS011;7638;49.760;8.646;2024-03-02T07:59:20;11.67;;;7.97;;
15077;SDS011;7638;49.760;8.646;2024-03-02T08:02:06;12.27;;;8.03;;
15077;SDS011;7638;49.760;8.646;2024-03-02T08:04:32;12.63;;;7.80;;
15077;SDS011;7638;49.760;8.646;2024-03-02T08:06:58;13.10;;;8.43;;
15077;SDS011;7638;49.760;8.646;2024-03-02T08:09:24;13.37;;;9.17;;
15077;SDS011;7638;49.760;8.646;2024-03-02T08:11:51;11.77;;;7.80;;
15077;SDS011;7638;49.760;8.646;2024-03-02T08:14:17;14.33;;;8.13;;
15077;SDS011;7638;49.760;8.646;2024-03-02T08:16:43;15.50;;;9.10;;
15077;SDS011;7638;49.760;8.646;2024-03-02T08:19:09;13.23;;;7.47;;
15077;SDS011;7638;49.760;8.646;2024-03-02T08:21:35;9.47;;;6.90;;
15077;SDS011;7638;49.760;8.646;2024-03-02T08:24:01;12.07;;;8.40;;
15077;SDS011;7638;49.760;8.646;2024-03-02T08:26:28;12.70;;;8.53;;
15077;SDS011;7638;49.760;8.646;2024-03-02T08:28:54;14.90;;;9.17;;
15077;SDS011;7638;49.760;8.646;2024-03-02T08:34:24;8.97;;;7.17;;
15077;SDS011;7638;49.760;8.646;2024-03-02T08:36:50;10.97;;;7.83;;
15077;SDS011;7638;49.760;8.646;2024-03-02T08:39:16;10.80;;;7.30;;
15077;SDS011;7638;49.760;8.646;2024-03-02T08:41:43;9.33;;;6.57;;
15077;SDS011;7638;49.760;8.646;2024-03-02T08:44:10;11.60;;;7.73;;
15077;SDS011;7638;49.760;8.646;2024-03-02T08:46:36;13.57;;;7.83;;
15077;SDS011;7638;49.760;8.646;2024-03-02T08:49:02;10.37;;;6.73;;
15077;SDS011;7638;49.760;8.646;2024-03-02T08:51:28;12.00;;;8.33;;
15077;SDS011;7638;49.760;8.646;2024-03-02T08:53:54;13.43;;;7.57;;
15077;SDS011;7638;49.760;8.646;2024-03-02T08:56:20;13.33;;;7.27;;
15077;SDS011;7638;49.760;8.646;2024-03-02T08:58:48;9.97;;;7.13;;
15077;SDS011;7638;49.760;8.646;2024-03-02T09:01:14;12.53;;;7.90;;
15077;SDS011;7638;49.760;8.646;2024-03-02T09:03:41;9.87;;;6.60;;
15077;SDS011;7638;49.760;8.646;2024-03-02T09:06:09;12.47;;;6.90;;
15077;SDS011;7638;49.760;8.646;2024-03-02T09:08:35;13.10;;;7.40;;
15077;SDS011;7638;49.760;8.646;2024-03-02T09:11:02;12.30;;;6.93;;
15077;SDS011;7638;49.760;8.646;2024-03-02T09:13:28;13.57;;;7.47;;
15077;SDS011;7638;49.760;8.646;2024-03-02T09:15:54;13.43;;;7.10;;
15077;SDS011;7638;49.760;8.646;2024-03-02T09:18:20;11.57;;;6.87;;
15077;SDS011;7638;49.760;8.646;2024-03-02T09:20:47;10.33;;;7.13;;
15077;SDS011;7638;49.760;8.646;2024-03-02T09:23:13;8.63;;;6.73;;
15077;SDS011;7638;49.760;8.646;2024-03-02T09:25:39;11.07;;;7.20;;
15077;SDS011;7638;49.760;8.646;2024-03-02T09:28:05;11.70;;;6.80;;
15077;SDS011;7638;49.760;8.646;2024-03-02T09:33:35;9.73;;;6.70;;
15077;SDS011;7638;49.760;8.646;2024-03-02T09:36:01;9.90;;;6.43;;
15077;SDS011;7638;49.760;8.646;2024-03-02T09:38:27;8.67;;;6.73;;
15077;SDS011;7638;49.760;8.646;2024-03-02T09:40:53;11.90;;;6.70;;
15077;SDS011;7638;49.760;8.646;2024-03-02T09:43:19;10.13;;;5.77;;
15077;SDS011;7638;49.760;8.646;2024-03-02T09:45:45;11.13;;;7.03;;
15077;SDS011;7638;49.760;8.646;2024-03-02T09:48:11;8.70;;;6.50;;
15077;SDS011;7638;49.760;8.646;2024-03-02T09:50:37;15.07;;;7.07;;
15077;SDS011;7638;49.760;8.646;2024-03-02T09:53:03;10.57;;;6.17;;
15077;SDS011;7638;49.760;8.646;2024-03-02T09:55:30;8.37;;;5.70;;
15077;SDS011;7638;49.760;8.646;2024-03-02T09:57:56;10.53;;;6.10;;
15077;SDS011;7638;49.760;8.646;2024-03-02T10:00:22;9.10;;;6.27;;
15077;SDS011;7638;49.760;8.646;2024-03-02T10:08:55;5.93;;;4.67;;
15077;SDS011;7638;49.760;8.646;2024-03-02T10:11:39;8.20;;;5.17;;
15077;SDS011;7638;49.760;8.646;2024-03-02T10:16:38;6.93;;;4.87;;
15077;SDS011;7638;49.760;8.646;2024-03-02T10:19:20;7.33;;;4.90;;
15077;SDS011;7638;49.760;8.646;2024-03-02T10:21:47;7.83;;;4.77;;
15077;SDS011;7638;49.760;8.646;2024-03-02T10:24:14;5.73;;;4.23;;
15077;SDS011;7638;49.760;8.646;2024-03-02T10:26:40;5.77;;;3.87;;
15077;SDS011;7638;49.760;8.646;2024-03-02T10:29:07;6.53;;;3.63;;
15077;SDS011;7638;49.760;8.646;2024-03-02T10:37:40;5.33;;;3.87;;
15077;SDS011;7638;49.760;8.646;2024-03-02T10:40:07;7.27;;;4.30;;
15077;SDS011;7638;49.760;8.646;2024-03-02T10:42:37;5.53;;;3.20;;
15077;SDS011;7638;49.760;8.646;2024-03-02T10:45:05;7.07;;;3.40;;
15077;SDS011;7638;49.760;8.646;2024-03-02T10:47:32;7.13;;;3.47;;
15077;SDS011;7638;49.760;8.646;2024-03-02T10:49:59;4.80;;;3.13;;
15077;SDS011;7638;49.760;8.646;2024-03-02T10:52:26;7.10;;;4.07;;
15077;SDS011;7638;49.760;8.646;2024-03-02T10:54:52;5.33;;;3.90;;
15077;SDS011;7638;49.760;8.646;2024-03-02T10:57:19;7.60;;;4.57;;
15077;SDS011;7638;49.760;8.646;2024-03-02T10:59:56;6.63;;;3.67;;
15077;SDS011;7638;49.760;8.646;2024-03-02T11:02:22;5.93;;;3.50;;
15077;SDS011;7638;49.760;8.646;2024-03-02T11:04:50;6.53;;;3.70;;
15077;SDS011;7638;49.760;8.646;2024-03-02T11:07:19;6.60;;;3.50;;
15077;SDS011;7638;49.760;8.646;2024-03-02T11:09:53;6.43;;;3.40;;
15077;SDS011;7638;49.760;8.646;2024-03-02T11:12:23;4.40;;;3.37;;
15077;SDS011;7638;49.760;8.646;2024-03-02T11:14:51;5.32;;;3.40;;
15077;SDS011;7638;49.760;8.646;2024-03-02T11:17:17;5.67;;;3.17;;
15077;SDS011;7638;49.760;8.646;2024-03-02T11:19:43;3.87;;;2.70;;
15077;SDS011;7638;49.760;8.646;2024-03-02T11:22:10;5.27;;;3.00;;
15077;SDS011;7638;49.760;8.646;2024-03-02T11:24:36;4.00;;;2.60;;
15077;SDS011;7638;49.760;8.646;2024-03-02T11:27:03;6.27;;;3.00;;
15077;SDS011;7638;49.760;8.646;2024-03-02T11:32:03;2.57;;;1.87;;
15077;SDS011;7638;49.760;8.646;2024-03-02T11:34:30;2.57;;;1.73;;
15077;SDS011;7638;49.760;8.646;2024-03-02T11:36:56;5.03;;;1.63;;
15077;SDS011;7638;49.760;8.646;2024-03-02T11:39:24;3.47;;;1.80;;
15077;SDS011;7638;49.760;8.646;2024-03-02T11:41:50;3.13;;;2.27;;
15077;SDS011;7638;49.760;8.646;2024-03-02T11:44:16;3.27;;;2.00;;
15077;SDS011;7638;49.760;8.646;2024-03-02T11:46:44;2.30;;;1.50;;
15077;SDS011;7638;49.760;8.646;2024-03-02T11:49:14;2.80;;;1.67;;
15077;SDS011;7638;49.760;8.646;2024-03-02T11:51:40;2.37;;;1.33;;
15077;SDS011;7638;49.760;8.646;2024-03-02T11:54:16;3.30;;;1.57;;
15077;SDS011;7638;49.760;8.646;2024-03-02T11:56:42;1.97;;;1.60;;
15077;SDS011;7638;49.760;8.646;2024-03-02T11:59:09;4.67;;;2.10;;
15077;SDS011;7638;49.760;8.646;2024-03-02T12:04:57;1.80;;;1.60;;
15077;SDS011;7638;49.760;8.646;2024-03-02T12:07:23;2.63;;;1.53;;
15077;SDS011;7638;49.760;8.646;2024-03-02T12:09:49;2.43;;;1.87;;
15077;SDS011;7638;49.760;8.646;2024-03-02T12:12:24;3.00;;;1.70;;
15077;SDS011;7638;49.760;8.646;2024-03-02T12:14:51;3.70;;;1.70;;
15077;SDS011;7638;49.760;8.646;2024-03-02T12:17:18;1.70;;;1.57;;
15077;SDS011;7638;49.760;8.646;2024-03-02T12:19:44;1.50;;;1.40;;
15077;SDS011;7638;49.760;8.646;2024-03-02T12:22:11;1.90;;;1.10;;
15077;SDS011;7638;49.760;8.646;2024-03-02T12:24:37;2.70;;;1.30;;
15077;SDS011;7638;49.760;8.646;2024-03-02T12:27:03;2.03;;;1.37;;
15077;SDS011;7638;49.760;8.646;2024-03-02T12:29:29;15.77;;;6.57;;
15077;SDS011;7638;49.760;8.646;2024-03-02T12:37:59;2.57;;;1.57;;
15077;SDS011;7638;49.760;8.646;2024-03-02T12:40:26;4.17;;;1.50;;
15077;SDS011;7638;49.760;8.646;2024-03-02T12:42:52;1.83;;;1.40;;
15077;SDS011;7638;49.760;8.646;2024-03-02T12:45:18;1.33;;;1.10;;
15077;SDS011;7638;49.760;8.646;2024-03-02T12:47:50;2.90;;;1.40;;
15077;SDS011;7638;49.760;8.646;2024-03-02T12:50:17;1.87;;;1.20;;
15077;SDS011;7638;49.760;8.646;2024-03-02T12:52:43;2.43;;;1.47;;
15077;SDS011;7638;49.760;8.646;2024-03-02T12:55:09;1.77;;;1.20;;
15077;SDS011;7638;49.760;8.646;2024-03-02T12:57:35;1.37;;;1.27;;
15077;SDS011;7638;49.760;8.646;2024-03-02T13:00:03;1.37;;;1.20;;
15077;SDS011;7638;49.760;8.646;2024-03-02T13:05:51;1.60;;;1.10;;
15077;SDS011;7638;49.760;8.646;2024-03-02T13:08:18;3.17;;;1.47;;
15077;SDS011;7638;49.760;8.646;2024-03-02T13:10:44;1.80;;;1.30;;
15077;SDS011;7638;49.760;8.646;2024-03-02T13:13:10;2.43;;;1.67;;
15077;SDS011;7638;49.760;8.646;2024-03-02T13:15:37;1.20;;;1.10;;
15077;SDS011;7638;49.760;8.646;2024-03-02T13:18:03;1.63;;;1.10;;
15077;SDS011;7638;49.760;8.646;2024-03-02T13:20:30;1.33;;;1.10;;
15077;SDS011;7638;49.760;8.646;2024-03-02T13:23:00;1.47;;;1.10;;
15077;SDS011;7638;49.760;8.646;2024-03-02T13:25:26;1.10;;;1.00;;
15077;SDS011;7638;49.760;8.646;2024-03-02T13:27:52;1.47;;;1.03;;
15077;SDS011;7638;49.760;8.646;2024-03-02T13:30:18;1.67;;;1.20;;
15077;SDS011;7638;49.760;8.646;2024-03-02T13:38:51;1.23;;;0.90;;
15077;SDS011;7638;49.760;8.646;2024-03-02T13:41:17;1.50;;;1.10;;
15077;SDS011;7638;49.760;8.646;2024-03-02T13:43:45;1.30;;;1.00;;
15077;SDS011;7638;49.760;8.646;2024-03-02T13:46:11;2.57;;;1.00;;
15077;SDS011;7638;49.760;8.646;2024-03-02T13:48:37;2.67;;;1.30;;
15077;SDS011;7638;49.760;8.646;2024-03-02T13:51:03;1.20;;;1.10;;
15077;SDS011;7638;49.760;8.646;2024-03-02T13:53:29;1.30;;;0.90;;
15077;SDS011;7638;49.760;8.646;2024-03-02T13:55:56;2.67;;;0.90;;
15077;SDS011;7638;49.760;8.646;2024-03-02T13:58:22;1.13;;;0.90;;
15077;SDS011;7638;49.760;8.646;2024-03-02T14:00:48;3.00;;;1.10;;
15077;SDS011;7638;49.760;8.646;2024-03-02T14:03:14;1.73;;;1.00;;
15077;SDS011;7638;49.760;8.646;2024-03-02T14:05:40;1.37;;;1.20;;
15077;SDS011;7638;49.760;8.646;2024-03-02T14:08:06;0.97;;;0.83;;
15077;SDS011;7638;49.760;8.646;2024-03-02T14:10:32;1.37;;;0.90;;
15077;SDS011;7638;49.760;8.646;2024-03-02T14:13:00;0.70;;;0.70;;
15077;SDS011;7638;49.760;8.646;2024-03-02T14:15:26;1.07;;;0.97;;
15077;SDS011;7638;49.760;8.646;2024-03-02T14:17:52;0.80;;;0.60;;
15077;SDS011;7638;49.760;8.646;2024-03-02T14:20:18;0.60;;;0.50;;
15077;SDS011;7638;49.760;8.646;2024-03-02T14:22:47;0.50;;;0.50;;
15077;SDS011;7638;49.760;8.646;2024-03-02T14:25:13;0.63;;;0.63;;
15077;SDS011;7638;49.760;8.646;2024-03-02T14:27:39;0.50;;;0.50;;
15077;SDS011;7638;49.760;8.646;2024-03-02T14:30:05;1.13;;;0.70;;
15077;SDS011;7638;49.760;8.646;2024-03-02T14:35:35;2.73;;;0.80;;
15077;SDS011;7638;49.760;8.646;2024-03-02T14:38:01;1.00;;;0.80;;
15077;SDS011;7638;49.760;8.646;2024-03-02T14:40:27;0.77;;;0.77;;
15077;SDS011;7638;49.760;8.646;2024-03-02T14:42:54;0.60;;;0.60;;
15077;SDS011;7638;49.760;8.646;2024-03-02T14:45:20;1.87;;;1.17;;
15077;SDS011;7638;49.760;8.646;2024-03-02T14:47:46;0.80;;;0.80;;
15077;SDS011;7638;49.760;8.646;2024-03-02T14:50:12;0.70;;;0.70;;
15077;SDS011;7638;49.760;8.646;2024-03-02T14:52:41;0.83;;;0.83;;
15077;SDS011;7638;49.760;8.646;2024-03-02T14:55:07;0.80;;;0.70;;
15077;SDS011;7638;49.760;8.646;2024-03-02T14:57:33;0.60;;;0.60;;
15077;SDS011;7638;49.760;8.646;2024-03-02T14:59:59;1.43;;;0.80;;
15077;SDS011;7638;49.760;8.646;2024-03-02T15:02:40;0.50;;;0.50;;
15077;SDS011;7638;49.760;8.646;2024-03-02T15:05:07;1.83;;;1.20;;
15077;SDS011;7638;49.760;8.646;2024-03-02T15:07:33;5.67;;;0.70;;
15077;SDS011;7638;49.760;8.646;2024-03-02T15:09:59;1.10;;;0.80;;
15077;SDS011;7638;49.760;8.646;2024-03-02T15:12:25;0.80;;;0.80;;
15077;SDS011;7638;49.760;8.646;2024-03-02T15:14:51;2.00;;;0.70;;
15077;SDS011;7638;49.760;8.646;2024-03-02T15:17:17;0.67;;;0.57;;
15077;SDS011;7638;49.760;8.646;2024-03-02T15:19:43;1.13;;;0.70;;
15077;SDS011;7638;49.760;8.646;2024-03-02T15:22:10;0.77;;;0.60;;
15077;SDS011;7638;49.760;8.646;2024-03-02T15:24:36;0.60;;;0.57;;
15077;SDS011;7638;49.760;8.646;2024-03-02T15:27:02;0.67;;;0.60;;
15077;SDS011;7638;49.760;8.646;2024-03-02T15:29:33;2.00;;;0.90;;
15077;SDS011;7638;49.760;8.646;2024-03-02T15:31:59;0.90;;;0.70;;
15077;SDS011;7638;49.760;8.646;2024-03-02T15:34:26;0.60;;;0.60;;
15077;SDS011;7638;49.760;8.646;2024-03-02T15:36:53;0.60;;;0.60;;
15077;SDS011;7638;49.760;8.646;2024-03-02T15:39:20;0.60;;;0.60;;
15077;SDS011;7638;49.760;8.646;2024-03-02T15:41:45;1.00;;;0.77;;
15077;SDS011;7638;49.760;8.646;2024-03-02T15:44:11;0.93;;;0.60;;
15077;SDS011;7638;49.760;8.646;2024-03-02T15:46:37;1.00;;;0.90;;
15077;SDS011;7638;49.760;8.646;2024-03-02T15:49:03;0.80;;;0.60;;
15077;SDS011;7638;49.760;8.646;2024-03-02T15:51:33;1.40;;;1.30;;
15077;SDS011;7638;49.760;8.646;2024-03-02T15:54:01;2.60;;;0.63;;
15077;SDS011;7638;49.760;8.646;2024-03-02T15:56:27;0.80;;;0.73;;
15077;SDS011;7638;49.760;8.646;2024-03-02T15:58:53;0.50;;;0.50;;
15077;SDS011;7638;49.760;8.646;2024-03-02T16:01:19;2.37;;;0.60;;
15077;SDS011;7638;49.760;8.646;2024-03-02T16:03:46;0.70;;;0.70;;
15077;SDS011;7638;49.760;8.646;2024-03-02T16:06:12;0.50;;;0.50;;